MSC Florentina — HPFH — position and weather

sailwx.info

Track history (hours):
 
Tides and Currents Weather Stations Pressure Air Temp Water Temp Dewpoint Dewpoint Depression Visibility Wind Speed Wind Dir Waves Ship Positions

MSC Florentina

Last reported at 2018-Jan-19 18:51 UTC. Time now 2018-Jan-19 19:33 UTC.
Position N 42°31' E 009°51'.

Length 300 m; draft 11.8 m.

Type: Ship (hazmat cat A). MMSI: 352870000.

Date/timePositionNaut miles runAvg speedWind from/ knotsBaromVisibWave heightAir tempDewpointWater temp
2018-Jan-19 18:51N 42°31' E 009°51'2621.2
2018-Jan-19 17:37N 42°56' E 009°37'221.6
2018-Jan-19 17:31N 42°58' E 009°37'1020.8
2018-Jan-19 17:01N 43°08' E 009°35'1020.0
2018-Jan-19 16:31N 43°18' E 009°38'1020.8
2018-Jan-19 16:01N 43°28' E 009°42'1020.8
2018-Jan-19 15:31N 43°38' E 009°45'1120.9
2018-Jan-19 15:00N 43°48' E 009°48'1020.7
2018-Jan-19 14:31N 43°58' E 009°52'612.3
2018-Jan-19 14:00N 44°04' E 009°51'2 4.0
2018-Jan-19 13:30N 44°06' E 009°51'0 0.0
2018-Jan-19 13:00N 44°06' E 009°51'0 0.0
2018-Jan-19 12:30N 44°06' E 009°51'0 0.0
2018-Jan-19 12:00N 44°06' E 009°51'0 0.0
2018-Jan-19 11:21N 44°06' E 009°51'0 0.0
2018-Jan-19 11:00N 44°06' E 009°51'0 0.0
2018-Jan-19 10:27N 44°06' E 009°51'0 0.0
2018-Jan-19 10:00N 44°06' E 009°51'0 0.0
2018-Jan-19 09:30N 44°06' E 009°51'0 0.0
2018-Jan-19 08:57N 44°06' E 009°51'0 0.0
2018-Jan-19 08:30N 44°06' E 009°51'0 0.0
2018-Jan-19 08:00N 44°06' E 009°51'0 0.0
2018-Jan-19 07:30N 44°06' E 009°51'0 0.0
2018-Jan-19 07:00N 44°06' E 009°51'0 0.0
2018-Jan-19 06:30N 44°06' E 009°51'0 0.0
2018-Jan-19 06:00N 44°06' E 009°51'0 0.0
2018-Jan-19 05:30N 44°06' E 009°51'0 0.0
2018-Jan-19 05:00N 44°06' E 009°51'0 0.0
2018-Jan-19 04:30N 44°06' E 009°51'0 0.0
2018-Jan-19 04:00N 44°06' E 009°51'0 0.0
2018-Jan-19 03:30N 44°06' E 009°51'0 0.0
2018-Jan-19 02:57N 44°06' E 009°51'0 0.0
2018-Jan-19 02:30N 44°06' E 009°51'0 0.0
2018-Jan-19 02:00N 44°06' E 009°51'0 0.0
2018-Jan-19 01:30N 44°06' E 009°51'0 0.0
2018-Jan-19 01:00N 44°06' E 009°51'0 0.0
2018-Jan-19 00:30N 44°06' E 009°51'0 0.0
2018-Jan-19 00:00N 44°06' E 009°51'0 0.0
2018-Jan-18 23:30N 44°06' E 009°51'0 0.0
2018-Jan-18 23:00N 44°06' E 009°51'0 0.0
2018-Jan-18 22:30N 44°06' E 009°51'0 0.4
2018-Jan-18 22:00N 44°06' E 009°51'2 4.5
2018-Jan-18 21:30N 44°04' E 009°51'5 9.4
2018-Jan-18 21:00N 44°00' E 009°55'815.3
2018-Jan-18 20:30N 43°56' E 009°46'713.1
2018-Jan-18 20:00N 43°53' E 009°39'713.4
2018-Jan-18 19:30N 43°49' E 009°30'815.2
2018-Jan-18 19:00N 43°46' E 009°21'815.1
2018-Jan-18 18:30N 43°42' E 009°12'815.1
2018-Jan-18 18:00N 43°38' E 009°03'815.2
2018-Jan-18 17:30N 43°34' E 008°54'815.4
2018-Jan-18 17:00N 43°30' E 008°45'815.5
2018-Jan-18 16:30N 43°27' E 008°36'5315.4
2018-Jan-18 13:05N 43°00' E 007°33'10513.0
2018-Jan-18 05:01N 43°06' E 005°10'015.8
2018-Jan-18 04:59N 43°06' E 005°10'715.6
2018-Jan-18 04:31N 43°11' E 005°02'815.1
2018-Jan-18 04:00N 43°19' E 004°59'611.1
2018-Jan-18 03:30N 43°24' E 004°55'4 8.3
2018-Jan-18 03:00N 43°25' E 004°50'0 0.4
2018-Jan-18 02:30N 43°25' E 004°50'0 0.0
2018-Jan-18 02:00N 43°25' E 004°50'0 0.0
2018-Jan-18 01:30N 43°25' E 004°50'0 0.0
2018-Jan-18 01:00N 43°25' E 004°50'0 0.0
2018-Jan-18 00:00N 43°25' E 004°50'0 0.0
2018-Jan-17 23:57N 43°25' E 004°50'  
2018-Jan-12 15:00N 50°32' E 000°16'1121.6
2018-Jan-12 14:30N 50°35' E 000°32'1121.8
2018-Jan-12 14:00N 50°41' E 000°47'1122.0
2018-Jan-12 13:31N 50°47' E 001°01'1121.7
2018-Jan-12 13:00N 50°53' E 001°16'1121.3
2018-Jan-12 12:29N 51°01' E 001°27'1020.6
2018-Jan-12 12:01N 51°08' E 001°38'1020.1
2018-Jan-12 11:30N 51°16' E 001°48'1020.0
2018-Jan-12 11:01N 51°26' E 001°52'1020.0
2018-Jan-12 10:30N 51°35' E 001°47'1020.1
2018-Jan-12 10:00N 51°45' E 001°44'612.4
2018-Jan-12 09:30N 51°50' E 001°37'714.2
2018-Jan-12 09:01N 51°44' E 001°30'918.6
2018-Jan-12 08:31N 51°37' E 001°20'917.7
2018-Jan-12 08:01N 51°33' E 001°08'816.6
2018-Jan-12 07:31N 51°29' E 000°56'815.0
2018-Jan-12 07:01N 51°30' E 000°44'714.7
2018-Jan-12 06:30N 51°30' E 000°32'1 2.9
2018-Jan-12 06:01N 51°30' E 000°30'0 0.0
2018-Jan-12 05:31N 51°30' E 000°30'0 0.0
2018-Jan-12 05:00N 51°30' E 000°30'0 0.0
2018-Jan-12 04:30N 51°30' E 000°30'0 0.0
2018-Jan-12 04:00N 51°30' E 000°30'0 0.0
2018-Jan-12 03:30N 51°30' E 000°30'0 0.0
2018-Jan-12 03:01N 51°30' E 000°30'0 0.0
2018-Jan-12 02:31N 51°30' E 000°30'0 0.0
2018-Jan-12 02:01N 51°30' E 000°30'0 0.0
2018-Jan-12 01:31N 51°30' E 000°30'0 0.0
2018-Jan-12 01:00N 51°30' E 000°30'0 0.0
2018-Jan-12 00:30N 51°30' E 000°30'0 0.0
2018-Jan-12 00:01N 51°30' E 000°30'0 0.0
2018-Jan-11 23:31N 51°30' E 000°30'0 0.0
2018-Jan-11 23:00N 51°30' E 000°30'0 0.0
2018-Jan-11 22:30N 51°30' E 000°30'0 0.0
2018-Jan-11 22:01N 51°30' E 000°30'0 0.0
2018-Jan-11 21:30N 51°30' E 000°30'0 0.0
2018-Jan-11 21:01N 51°30' E 000°30'0 0.0
2018-Jan-11 20:30N 51°30' E 000°30'0 0.0
2018-Jan-11 20:00N 51°30' E 000°30'0 0.0
2018-Jan-11 19:31N 51°30' E 000°30'0 0.0
2018-Jan-11 19:00N 51°30' E 000°30'0 0.0
2018-Jan-11 18:31N 51°30' E 000°30'0 0.0
2018-Jan-11 18:00N 51°30' E 000°30'0 0.0
2018-Jan-11 17:30N 51°30' E 000°30'0 0.0
2018-Jan-11 17:01N 51°30' E 000°30'0 0.0
2018-Jan-11 16:30N 51°30' E 000°30'0 0.0
2018-Jan-11 16:01N 51°30' E 000°30'0 0.1
2018-Jan-11 15:30N 51°30' E 000°30'1 3.0
2018-Jan-11 15:01N 51°30' E 000°33'714.8
2018-Jan-11 14:30N 51°30' E 000°44'917.3
2018-Jan-11 14:00N 51°29' E 000°58'918.7
2018-Jan-11 13:30N 51°34' E 001°11'917.6
2018-Jan-11 13:01N 51°39' E 001°23'917.4
2018-Jan-11 12:30N 51°46' E 001°31'612.6
2018-Jan-11 12:00N 51°50' E 001°38'3 6.6
2018-Jan-11 11:30N 51°51' E 001°43'4 8.6
2018-Jan-11 11:01N 51°48' E 001°48'611.2
2018-Jan-11 10:30N 51°43' E 001°49'5 9.8
2018-Jan-11 10:01N 51°38' E 001°50'510.2
2018-Jan-11 09:31N 51°33' E 001°53'510.8
2018-Jan-11 09:01N 51°28' E 001°57'611.4
2018-Jan-11 08:31N 51°25' E 002°04'611.4
2018-Jan-11 08:00N 51°22' E 002°12'510.2
2018-Jan-11 07:30N 51°21' E 002°20'510.7
2018-Jan-11 07:00N 51°23' E 002°28'610.9
2018-Jan-11 06:30N 51°23' E 002°37'510.6
2018-Jan-11 06:00N 51°24' E 002°45'714.8
2018-Jan-11 05:30N 51°25' E 002°57'816.6
2018-Jan-11 05:00N 51°24' E 003°10'816.7
2018-Jan-11 04:30N 51°25' E 003°24'714.1
2018-Jan-11 04:00N 51°26' E 003°35'510.8
2018-Jan-11 03:30N 51°24' E 003°43'714.1
2018-Jan-11 03:00N 51°21' E 003°53'713.6
2018-Jan-11 02:31N 51°26' E 004°01'611.7
2018-Jan-11 02:00N 51°23' E 004°10'510.5
2018-Jan-11 01:30N 51°20' E 004°16'2 4.6
2018-Jan-11 01:00N 51°18' E 004°16'0 0.0
2018-Jan-11 00:30N 51°18' E 004°16'0 0.0
2018-Jan-11 00:00N 51°18' E 004°16'0 0.0
2018-Jan-10 23:27N 51°18' E 004°16'0 0.0
2018-Jan-10 22:57N 51°18' E 004°16'0 0.0
2018-Jan-10 22:30N 51°18' E 004°16'0 0.0
2018-Jan-10 22:00N 51°18' E 004°16'0 0.0
2018-Jan-10 21:30N 51°18' E 004°16'0 0.0
2018-Jan-10 21:00N 51°18' E 004°16'0 0.0
2018-Jan-10 20:30N 51°18' E 004°16'0 0.0
2018-Jan-10 20:00N 51°18' E 004°16'0 0.0
2018-Jan-10 19:30N 51°18' E 004°16'0 0.0
2018-Jan-10 19:00N 51°18' E 004°16'0 0.0
2018-Jan-10 18:30N 51°18' E 004°16'0 0.0
2018-Jan-10 17:57N 51°18' E 004°16'0 0.0
2018-Jan-10 17:30N 51°18' E 004°16'0 0.0
2018-Jan-10 16:57N 51°18' E 004°16'0 0.0
2018-Jan-10 16:30N 51°18' E 004°16'0 0.0
2018-Jan-10 16:00N 51°18' E 004°16'0 0.0
2018-Jan-10 15:30N 51°18' E 004°16'0 0.0
2018-Jan-10 15:00N 51°18' E 004°16'0 0.0
2018-Jan-10 14:30N 51°18' E 004°16'0 0.0
2018-Jan-10 14:00N 51°18' E 004°16'0 0.0
2018-Jan-10 13:30N 51°18' E 004°16'0 0.0
2018-Jan-10 13:00N 51°18' E 004°16'0 0.0
2018-Jan-10 12:30N 51°18' E 004°16'0 0.0
2018-Jan-10 11:57N 51°18' E 004°16'0 0.0
2018-Jan-10 11:30N 51°18' E 004°16'0 0.0
2018-Jan-10 11:00N 51°18' E 004°16'0 0.0
2018-Jan-10 10:30N 51°18' E 004°16'0 0.0
2018-Jan-10 10:00N 51°18' E 004°16'0 0.0
2018-Jan-10 09:30N 51°18' E 004°16'0 0.0
2018-Jan-10 09:00N 51°18' E 004°16'0 0.0
2018-Jan-10 08:30N 51°18' E 004°16'0 0.0
2018-Jan-10 08:00N 51°18' E 004°16'0 0.0
2018-Jan-10 07:27N 51°18' E 004°16'0 0.0
2018-Jan-10 07:00N 51°18' E 004°16'0 0.0
2018-Jan-10 06:30N 51°18' E 004°16'0 0.0
2018-Jan-10 06:00N 51°18' E 004°16'0 0.0
2018-Jan-10 05:30N 51°18' E 004°16'0 0.0
2018-Jan-10 05:00N 51°18' E 004°16'0 0.0
2018-Jan-10 04:30N 51°18' E 004°16'0 0.0
2018-Jan-10 04:00N 51°18' E 004°16'0 0.0
2018-Jan-10 03:30N 51°18' E 004°16'0 0.0
2018-Jan-10 03:00N 51°18' E 004°16'0 0.0
2018-Jan-10 02:30N 51°18' E 004°16'0 0.0
2018-Jan-10 01:57N 51°18' E 004°16'0 0.0
2018-Jan-10 01:27N 51°18' E 004°16'0 0.0
2018-Jan-10 01:00N 51°18' E 004°16'0 0.0
2018-Jan-10 00:30N 51°18' E 004°16'0 0.0
2018-Jan-10 00:00N 51°18' E 004°16'0 0.0
2018-Jan-09 23:24N 51°18' E 004°16'0 0.1
2018-Jan-09 23:00N 51°18' E 004°16'1 2.2
2018-Jan-09 22:31N 51°19' E 004°16'3 6.9
2018-Jan-09 22:00N 51°22' E 004°14'3 6.6
2018-Jan-09 21:30N 51°22' E 004°08'5 9.4
2018-Jan-09 21:00N 51°25' E 004°02'3 6.2
2018-Jan-09 20:30N 51°24' E 003°57'611.9
2018-Jan-09 20:01N 51°21' E 003°49'611.6
2018-Jan-09 19:30N 51°25' E 003°42'510.7
2018-Jan-09 19:00N 51°26' E 003°34'  
Track history (hours):
 
Tides and Currents Weather Stations Pressure Air Temp Water Temp Dewpoint Dewpoint Depression Visibility Wind Speed Wind Dir Waves Ship Positions

MSC Florentina

Last reported at 2018-Jan-19 18:51 UTC. Time now 2018-Jan-19 19:33 UTC.
Position N 42°31' E 009°51'.

Length 300 m; draft 11.8 m.

Type: Ship (hazmat cat A). MMSI: 352870000.

Date/timePositionNaut miles runAvg speedWind from/ knotsBaromVisibWave heightAir tempDewpointWater temp
2018-Jan-19 18:51N 42°31' E 009°51'2621.2
2018-Jan-19 17:37N 42°56' E 009°37'221.6
2018-Jan-19 17:31N 42°58' E 009°37'1020.8
2018-Jan-19 17:01N 43°08' E 009°35'1020.0
2018-Jan-19 16:31N 43°18' E 009°38'1020.8
2018-Jan-19 16:01N 43°28' E 009°42'1020.8
2018-Jan-19 15:31N 43°38' E 009°45'1120.9
2018-Jan-19 15:00N 43°48' E 009°48'1020.7
2018-Jan-19 14:31N 43°58' E 009°52'612.3
2018-Jan-19 14:00N 44°04' E 009°51'2 4.0
2018-Jan-19 13:30N 44°06' E 009°51'0 0.0
2018-Jan-19 13:00N 44°06' E 009°51'0 0.0
2018-Jan-19 12:30N 44°06' E 009°51'0 0.0
2018-Jan-19 12:00N 44°06' E 009°51'0 0.0
2018-Jan-19 11:21N 44°06' E 009°51'0 0.0
2018-Jan-19 11:00N 44°06' E 009°51'0 0.0
2018-Jan-19 10:27N 44°06' E 009°51'0 0.0
2018-Jan-19 10:00N 44°06' E 009°51'0 0.0
2018-Jan-19 09:30N 44°06' E 009°51'0 0.0
2018-Jan-19 08:57N 44°06' E 009°51'0 0.0
2018-Jan-19 08:30N 44°06' E 009°51'0 0.0
2018-Jan-19 08:00N 44°06' E 009°51'0 0.0
2018-Jan-19 07:30N 44°06' E 009°51'0 0.0
2018-Jan-19 07:00N 44°06' E 009°51'0 0.0
2018-Jan-19 06:30N 44°06' E 009°51'0 0.0
2018-Jan-19 06:00N 44°06' E 009°51'0 0.0
2018-Jan-19 05:30N 44°06' E 009°51'0 0.0
2018-Jan-19 05:00N 44°06' E 009°51'0 0.0
2018-Jan-19 04:30N 44°06' E 009°51'0 0.0
2018-Jan-19 04:00N 44°06' E 009°51'0 0.0
2018-Jan-19 03:30N 44°06' E 009°51'0 0.0
2018-Jan-19 02:57N 44°06' E 009°51'0 0.0
2018-Jan-19 02:30N 44°06' E 009°51'0 0.0
2018-Jan-19 02:00N 44°06' E 009°51'0 0.0
2018-Jan-19 01:30N 44°06' E 009°51'0 0.0
2018-Jan-19 01:00N 44°06' E 009°51'0 0.0
2018-Jan-19 00:30N 44°06' E 009°51'0 0.0
2018-Jan-19 00:00N 44°06' E 009°51'0 0.0
2018-Jan-18 23:30N 44°06' E 009°51'0 0.0
2018-Jan-18 23:00N 44°06' E 009°51'0 0.0
2018-Jan-18 22:30N 44°06' E 009°51'0 0.4
2018-Jan-18 22:00N 44°06' E 009°51'2 4.5
2018-Jan-18 21:30N 44°04' E 009°51'5 9.4
2018-Jan-18 21:00N 44°00' E 009°55'815.3
2018-Jan-18 20:30N 43°56' E 009°46'713.1
2018-Jan-18 20:00N 43°53' E 009°39'713.4
2018-Jan-18 19:30N 43°49' E 009°30'815.2
2018-Jan-18 19:00N 43°46' E 009°21'815.1
2018-Jan-18 18:30N 43°42' E 009°12'815.1
2018-Jan-18 18:00N 43°38' E 009°03'815.2
2018-Jan-18 17:30N 43°34' E 008°54'815.4
2018-Jan-18 17:00N 43°30' E 008°45'815.5
2018-Jan-18 16:30N 43°27' E 008°36'5315.4
2018-Jan-18 13:05N 43°00' E 007°33'10513.0
2018-Jan-18 05:01N 43°06' E 005°10'015.8
2018-Jan-18 04:59N 43°06' E 005°10'715.6
2018-Jan-18 04:31N 43°11' E 005°02'815.1
2018-Jan-18 04:00N 43°19' E 004°59'611.1
2018-Jan-18 03:30N 43°24' E 004°55'4 8.3
2018-Jan-18 03:00N 43°25' E 004°50'0 0.4
2018-Jan-18 02:30N 43°25' E 004°50'0 0.0
2018-Jan-18 02:00N 43°25' E 004°50'0 0.0
2018-Jan-18 01:30N 43°25' E 004°50'0 0.0
2018-Jan-18 01:00N 43°25' E 004°50'0 0.0
2018-Jan-18 00:00N 43°25' E 004°50'0 0.0
2018-Jan-17 23:57N 43°25' E 004°50'  
2018-Jan-12 15:00N 50°32' E 000°16'1121.6
2018-Jan-12 14:30N 50°35' E 000°32'1121.8
2018-Jan-12 14:00N 50°41' E 000°47'1122.0
2018-Jan-12 13:31N 50°47' E 001°01'1121.7
2018-Jan-12 13:00N 50°53' E 001°16'1121.3
2018-Jan-12 12:29N 51°01' E 001°27'1020.6
2018-Jan-12 12:01N 51°08' E 001°38'1020.1
2018-Jan-12 11:30N 51°16' E 001°48'1020.0
2018-Jan-12 11:01N 51°26' E 001°52'1020.0
2018-Jan-12 10:30N 51°35' E 001°47'1020.1
2018-Jan-12 10:00N 51°45' E 001°44'612.4
2018-Jan-12 09:30N 51°50' E 001°37'714.2
2018-Jan-12 09:01N 51°44' E 001°30'918.6
2018-Jan-12 08:31N 51°37' E 001°20'917.7
2018-Jan-12 08:01N 51°33' E 001°08'816.6
2018-Jan-12 07:31N 51°29' E 000°56'815.0
2018-Jan-12 07:01N 51°30' E 000°44'714.7
2018-Jan-12 06:30N 51°30' E 000°32'1 2.9
2018-Jan-12 06:01N 51°30' E 000°30'0 0.0
2018-Jan-12 05:31N 51°30' E 000°30'0 0.0
2018-Jan-12 05:00N 51°30' E 000°30'0 0.0
2018-Jan-12 04:30N 51°30' E 000°30'0 0.0
2018-Jan-12 04:00N 51°30' E 000°30'0 0.0
2018-Jan-12 03:30N 51°30' E 000°30'0 0.0
2018-Jan-12 03:01N 51°30' E 000°30'0 0.0
2018-Jan-12 02:31N 51°30' E 000°30'0 0.0
2018-Jan-12 02:01N 51°30' E 000°30'0 0.0
2018-Jan-12 01:31N 51°30' E 000°30'0 0.0
2018-Jan-12 01:00N 51°30' E 000°30'0 0.0
2018-Jan-12 00:30N 51°30' E 000°30'0 0.0
2018-Jan-12 00:01N 51°30' E 000°30'0 0.0
2018-Jan-11 23:31N 51°30' E 000°30'0 0.0
2018-Jan-11 23:00N 51°30' E 000°30'0 0.0
2018-Jan-11 22:30N 51°30' E 000°30'0 0.0
2018-Jan-11 22:01N 51°30' E 000°30'0 0.0
2018-Jan-11 21:30N 51°30' E 000°30'0 0.0
2018-Jan-11 21:01N 51°30' E 000°30'0 0.0
2018-Jan-11 20:30N 51°30' E 000°30'0 0.0
2018-Jan-11 20:00N 51°30' E 000°30'0 0.0
2018-Jan-11 19:31N 51°30' E 000°30'0 0.0
2018-Jan-11 19:00N 51°30' E 000°30'0 0.0
2018-Jan-11 18:31N 51°30' E 000°30'0 0.0
2018-Jan-11 18:00N 51°30' E 000°30'0 0.0
2018-Jan-11 17:30N 51°30' E 000°30'0 0.0
2018-Jan-11 17:01N 51°30' E 000°30'0 0.0
2018-Jan-11 16:30N 51°30' E 000°30'0 0.0
2018-Jan-11 16:01N 51°30' E 000°30'0 0.1
2018-Jan-11 15:30N 51°30' E 000°30'1 3.0
2018-Jan-11 15:01N 51°30' E 000°33'714.8
2018-Jan-11 14:30N 51°30' E 000°44'917.3
2018-Jan-11 14:00N 51°29' E 000°58'918.7
2018-Jan-11 13:30N 51°34' E 001°11'917.6
2018-Jan-11 13:01N 51°39' E 001°23'917.4
2018-Jan-11 12:30N 51°46' E 001°31'612.6
2018-Jan-11 12:00N 51°50' E 001°38'3 6.6
2018-Jan-11 11:30N 51°51' E 001°43'4 8.6
2018-Jan-11 11:01N 51°48' E 001°48'611.2
2018-Jan-11 10:30N 51°43' E 001°49'5 9.8
2018-Jan-11 10:01N 51°38' E 001°50'510.2
2018-Jan-11 09:31N 51°33' E 001°53'510.8
2018-Jan-11 09:01N 51°28' E 001°57'611.4
2018-Jan-11 08:31N 51°25' E 002°04'611.4
2018-Jan-11 08:00N 51°22' E 002°12'510.2
2018-Jan-11 07:30N 51°21' E 002°20'510.7
2018-Jan-11 07:00N 51°23' E 002°28'610.9
2018-Jan-11 06:30N 51°23' E 002°37'510.6
2018-Jan-11 06:00N 51°24' E 002°45'714.8
2018-Jan-11 05:30N 51°25' E 002°57'816.6
2018-Jan-11 05:00N 51°24' E 003°10'816.7
2018-Jan-11 04:30N 51°25' E 003°24'714.1
2018-Jan-11 04:00N 51°26' E 003°35'510.8
2018-Jan-11 03:30N 51°24' E 003°43'714.1
2018-Jan-11 03:00N 51°21' E 003°53'713.6
2018-Jan-11 02:31N 51°26' E 004°01'611.7
2018-Jan-11 02:00N 51°23' E 004°10'510.5
2018-Jan-11 01:30N 51°20' E 004°16'2 4.6
2018-Jan-11 01:00N 51°18' E 004°16'0 0.0
2018-Jan-11 00:30N 51°18' E 004°16'0 0.0
2018-Jan-11 00:00N 51°18' E 004°16'0 0.0
2018-Jan-10 23:27N 51°18' E 004°16'0 0.0
2018-Jan-10 22:57N 51°18' E 004°16'0 0.0
2018-Jan-10 22:30N 51°18' E 004°16'0 0.0
2018-Jan-10 22:00N 51°18' E 004°16'0 0.0
2018-Jan-10 21:30N 51°18' E 004°16'0 0.0
2018-Jan-10 21:00N 51°18' E 004°16'0 0.0
2018-Jan-10 20:30N 51°18' E 004°16'0 0.0
2018-Jan-10 20:00N 51°18' E 004°16'0 0.0
2018-Jan-10 19:30N 51°18' E 004°16'0 0.0
2018-Jan-10 19:00N 51°18' E 004°16'0 0.0
2018-Jan-10 18:30N 51°18' E 004°16'0 0.0
2018-Jan-10 17:57N 51°18' E 004°16'0 0.0
2018-Jan-10 17:30N 51°18' E 004°16'0 0.0
2018-Jan-10 16:57N 51°18' E 004°16'0 0.0
2018-Jan-10 16:30N 51°18' E 004°16'0 0.0
2018-Jan-10 16:00N 51°18' E 004°16'0 0.0
2018-Jan-10 15:30N 51°18' E 004°16'0 0.0
2018-Jan-10 15:00N 51°18' E 004°16'0 0.0
2018-Jan-10 14:30N 51°18' E 004°16'0 0.0
2018-Jan-10 14:00N 51°18' E 004°16'0 0.0
2018-Jan-10 13:30N 51°18' E 004°16'0 0.0
2018-Jan-10 13:00N 51°18' E 004°16'0 0.0
2018-Jan-10 12:30N 51°18' E 004°16'0 0.0
2018-Jan-10 11:57N 51°18' E 004°16'0 0.0
2018-Jan-10 11:30N 51°18' E 004°16'0 0.0
2018-Jan-10 11:00N 51°18' E 004°16'0 0.0
2018-Jan-10 10:30N 51°18' E 004°16'0 0.0
2018-Jan-10 10:00N 51°18' E 004°16'0 0.0
2018-Jan-10 09:30N 51°18' E 004°16'0 0.0
2018-Jan-10 09:00N 51°18' E 004°16'0 0.0
2018-Jan-10 08:30N 51°18' E 004°16'0 0.0
2018-Jan-10 08:00N 51°18' E 004°16'0 0.0
2018-Jan-10 07:27N 51°18' E 004°16'0 0.0
2018-Jan-10 07:00N 51°18' E 004°16'0 0.0
2018-Jan-10 06:30N 51°18' E 004°16'0 0.0
2018-Jan-10 06:00N 51°18' E 004°16'0 0.0
2018-Jan-10 05:30N 51°18' E 004°16'0 0.0
2018-Jan-10 05:00N 51°18' E 004°16'0 0.0
2018-Jan-10 04:30N 51°18' E 004°16'0 0.0
2018-Jan-10 04:00N 51°18' E 004°16'0 0.0
2018-Jan-10 03:30N 51°18' E 004°16'0 0.0
2018-Jan-10 03:00N 51°18' E 004°16'0 0.0
2018-Jan-10 02:30N 51°18' E 004°16'0 0.0
2018-Jan-10 01:57N 51°18' E 004°16'0 0.0
2018-Jan-10 01:27N 51°18' E 004°16'0 0.0
2018-Jan-10 01:00N 51°18' E 004°16'0 0.0
2018-Jan-10 00:30N 51°18' E 004°16'0 0.0
2018-Jan-10 00:00N 51°18' E 004°16'0 0.0
2018-Jan-09 23:24N 51°18' E 004°16'0 0.1
2018-Jan-09 23:00N 51°18' E 004°16'1 2.2
2018-Jan-09 22:31N 51°19' E 004°16'3 6.9
2018-Jan-09 22:00N 51°22' E 004°14'3 6.6
2018-Jan-09 21:30N 51°22' E 004°08'5 9.4
2018-Jan-09 21:00N 51°25' E 004°02'3 6.2
2018-Jan-09 20:30N 51°24' E 003°57'611.9
2018-Jan-09 20:01N 51°21' E 003°49'611.6
2018-Jan-09 19:30N 51°25' E 003°42'510.7
2018-Jan-09 19:00N 51°26' E 003°34'  

Dump ship's entire track history